This is the latest recevied weather packets stored in our database for station/object K7AZM. If no packets are shown the sender has not sent any weather packets the latest 10 day(s).
| Time | Temp. | Humidity | Pressure | Rain* | Wind** | Luminosity | Snow |
|---|---|---|---|---|---|---|---|
| 1777842924 | 35° C | 15% | 1009.9 hPa | 0 mm | - | - | - |
| 1777842043 | 34.44° C | 15% | 1010.2 hPa | 0 mm | - | - | - |
| 1777841745 | 35° C | 15% | 1010.3 hPa | 0 mm | - | - | - |
| 1777839624 | 33.89° C | 19% | 1010.9 hPa | 0 mm | - | - | - |
| 1777836623 | 33.33° C | 18% | 1011.7 hPa | 0 mm | - | - | - |
| 1777835723 | 32.22° C | 18% | 1011.9 hPa | 0 mm | - | - | - |
| 1777832463 | 32.22° C | 20% | 1012.7 hPa | 0 mm | - | - | - |
| 1777830923 | 31.11° C | 22% | 1012.9 hPa | 0 mm | - | - | - |
| 1777829725 | 30° C | 24% | 1012.9 hPa | 0 mm | - | - | - |
| 1777829123 | 29.44° C | 25% | 1013.1 hPa | 0 mm | - | - | - |
| 1777828223 | 29.44° C | 26% | 1013.2 hPa | 0 mm | - | - | - |
| 1777827623 | 29.44° C | 26% | 1013.4 hPa | 0 mm | - | - | - |
| 1777825223 | 28.33° C | 28% | 1013.5 hPa | 0 mm | - | - | - |
| 1777821623 | 27.22° C | 29% | 1013 hPa | 0 mm | - | - | - |
| 1777820723 | 26.67° C | 29% | 1013.1 hPa | 0 mm | - | - | - |
| 1777819223 | 26.11° C | 29% | 1013.1 hPa | 0 mm | - | - | - |
| 1777818624 | 26.11° C | 30% | 1013 hPa | 0 mm | - | - | - |
| 1777818345 | 25.56° C | 30% | 1013 hPa | 0 mm | - | - | - |
| 1777815044 | 25° C | 31% | 1013 hPa | 0 mm | - | - | - |
| 1777812924 | 24.44° C | 30% | 1012.8 hPa | 0 mm | - | - | - |
| 1777809623 | 23.33° C | 31% | 1012.3 hPa | 0 mm | - | - | - |
| 1777809324 | 23.33° C | 31% | 1012.3 hPa | 0 mm | - | - | - |
| 1777808723 | 23.89° C | 29% | 1012.3 hPa | 0 mm | - | - | - |
| 1777805424 | 22.22° C | 31% | 1012.4 hPa | 0 mm | - | - | - |
| 1777803923 | 22.22° C | 30% | 1012.4 hPa | 0 mm | - | - | - |
* Rain latest hour (hover to see other rain measurements)
** Current wind speed in m/s (hover to see current wind gust speed)